Time,TemperatureF,DewpointF,PressureIn,WindDirection,WindDirectionDegrees,WindSpeedMPH,WindSpeedGustMPH,Humidity,HourlyPrecipIn,Conditions,Clouds,dailyrainin,SoftwareType,DateUTC
2013-09-16 02:35:00,45.3,42.2,30.34,East,81,0.0,0.0,89,0.00,CLR,SKC,0.00,WeatherDisplay:10.37,2013-09-16 07:35:00,
2013-09-16 06:46:00,42.1,39.7,30.39,East,82,2.3,2.3,91,0.00,CLR,SKC,0.00,WeatherDisplay:10.37,2013-09-16 11:46:00,
2013-09-16 06:47:00,42.1,39.7,30.39,East,82,2.3,2.3,91,0.00,CLR,SKC,0.00,WeatherDisplay:10.37,2013-09-16 11:47:00,
2013-09-16 06:52:00,42.1,39.7,30.39,East,82,0.0,0.0,91,0.00,CLR,SKC,0.00,WeatherDisplay:10.37,2013-09-16 11:52:00,
2013-09-16 06:57:00,42.0,39.6,30.39,East,82,0.0,0.0,91,0.00,CLR,SKC,0.00,WeatherDisplay:10.37,2013-09-16 11:57:00,
2013-09-16 07:02:00,42.0,39.6,30.39,East,82,0.0,0.0,91,0.00,CLR,SKC,0.00,WeatherDisplay:10.37,2013-09-16 12:02:00,
2013-09-16 07:07:00,41.9,39.5,30.39,East,82,0.0,0.0,91,0.00,CLR,SKC,0.00,WeatherDisplay:10.37,2013-09-16 12:07:00,
2013-09-16 07:12:00,42.0,39.6,30.39,East,82,0.0,0.0,91,0.01,RA,SKC,0.01,WeatherDisplay:10.37,2013-09-16 12:12:00,
2013-09-16 07:17:00,42.3,39.9,30.39,East,82,0.0,0.0,91,0.01,RA,SKC,0.01,WeatherDisplay:10.37,2013-09-16 12:17:00,
2013-09-16 07:22:00,42.6,40.2,30.39,East,82,1.2,0.0,91,0.01,CLR,SKC,0.01,WeatherDisplay:10.37,2013-09-16 12:22:00,
2013-09-16 07:27:00,43.2,40.8,30.39,East,94,3.5,3.5,91,0.01,CLR,SKC,0.01,WeatherDisplay:10.37,2013-09-16 12:27:00,
2013-09-16 07:32:00,43.7,41.2,30.39,East,94,0.0,0.1,91,0.01,CLR,SKC,0.01,WeatherDisplay:10.37,2013-09-16 12:32:00,
2013-09-16 07:37:00,44.2,41.7,30.39,East,95,0.0,0.0,91,0.01,CLR,SKC,0.01,WeatherDisplay:10.37,2013-09-16 12:37:00,
2013-09-16 07:42:00,44.6,41.8,30.39,ESE,111,3.5,0.0,90,0.01,CLR,SKC,0.01,WeatherDisplay:10.37,2013-09-16 12:42:00,
2013-09-16 07:47:00,45.0,42.0,30.39,East,95,3.5,0.0,89,0.01,CLR,SKC,0.01,WeatherDisplay:10.37,2013-09-16 12:47:00,
2013-09-16 07:52:00,45.3,42.2,30.39,East,97,4.6,4.6,89,0.01,CLR,SKC,0.01,WeatherDisplay:10.37,2013-09-16 12:52:00,
2013-09-16 07:57:00,45.7,42.1,30.40,ESE,107,3.5,3.5,87,0.01,CLR,SKC,0.01,WeatherDisplay:10.37,2013-09-16 12:57:00,
2013-09-16 08:02:00,46.0,42.0,30.40,East,92,3.5,3.5,86,0.01,CLR,SKC,0.01,WeatherDisplay:10.37,2013-09-16 13:02:00,
2013-09-16 08:07:00,46.3,42.3,30.40,SE,137,10.4,10.4,86,0.01,CLR,SKC,0.01,WeatherDisplay:10.37,2013-09-16 13:07:00,
2013-09-16 08:12:00,46.5,42.2,30.40,East,99,3.5,3.5,85,0.00,CLR,SKC,0.01,WeatherDisplay:10.37,2013-09-16 13:12:00,
2013-09-16 08:17:00,46.6,42.0,30.40,ESE,115,5.8,5.8,84,0.00,CLR,SKC,0.01,WeatherDisplay:10.37,2013-09-16 13:17:00,
2013-09-16 08:22:00,46.6,41.7,30.40,ESE,117,6.9,6.9,83,0.00,CLR,SKC,0.01,WeatherDisplay:10.37,2013-09-16 13:22:00,
2013-09-16 08:27:00,46.7,41.8,30.40,East,97,4.6,4.6,83,0.00,CLR,SKC,0.01,WeatherDisplay:10.37,2013-09-16 13:27:00,
2013-09-16 08:32:00,47.0,42.1,30.40,East,98,0.0,1.4,83,0.00,CLR,SKC,0.01,WeatherDisplay:10.37,2013-09-16 13:32:00,
2013-09-16 08:37:00,47.5,42.3,30.40,ESE,113,5.8,5.8,82,0.00,CLR,SKC,0.01,WeatherDisplay:10.37,2013-09-16 13:37:00,
2013-09-16 08:42:00,47.9,42.3,30.40,East,86,4.6,4.6,81,0.00,CLR,SKC,0.01,WeatherDisplay:10.37,2013-09-16 13:42:00,
2013-09-16 08:47:00,48.1,42.5,30.40,ESE,109,5.8,5.8,81,0.00,CLR,SKC,0.01,WeatherDisplay:10.37,2013-09-16 13:47:00,
2013-09-16 08:52:00,48.4,42.5,30.40,SE,146,4.6,4.6,80,0.00,CLR,SKC,0.01,WeatherDisplay:10.37,2013-09-16 13:52:00,
2013-09-16 08:57:00,48.6,42.7,30.40,East,80,6.0,6.0,80,0.00,CLR,SKC,0.01,WeatherDisplay:10.37,2013-09-16 13:57:00,
2013-09-16 09:02:00,48.8,42.2,30.40,East,99,10.4,10.4,78,0.00,CLR,SKC,0.01,WeatherDisplay:10.37,2013-09-16 14:02:00,
2013-09-16 09:07:00,48.6,42.0,30.40,East,101,5.8,5.8,78,0.00,CLR,SKC,0.01,WeatherDisplay:10.37,2013-09-16 14:07:00,
2013-09-16 09:12:00,48.8,42.2,30.40,East,88,3.5,3.5,78,0.00,CLR,SKC,0.01,WeatherDisplay:10.37,2013-09-16 14:12:00,
2013-09-16 09:17:00,49.1,42.5,30.40,East,99,6.9,6.9,78,0.00,CLR,SKC,0.01,WeatherDisplay:10.37,2013-09-16 14:17:00,
2013-09-16 09:22:00,49.4,42.8,30.41,SE,140,4.6,4.6,78,0.00,CLR,SKC,0.01,WeatherDisplay:10.37,2013-09-16 14:22:00,
2013-09-16 09:27:00,49.6,43.0,30.41,ESE,122,6.9,6.9,78,0.00,CLR,SKC,0.01,WeatherDisplay:10.37,2013-09-16 14:27:00,
2013-09-16 09:32:00,49.9,43.0,30.41,East,88,4.6,4.6,77,0.00,CLR,SKC,0.01,WeatherDisplay:10.37,2013-09-16 14:32:00,
2013-09-16 09:37:00,50.1,42.8,30.41,ESE,110,4.6,4.6,76,0.00,CLR,SKC,0.01,WeatherDisplay:10.37,2013-09-16 14:37:00,
2013-09-16 09:42:00,50.7,43.8,30.41,East,82,4.6,4.6,77,0.00,CLR,SKC,0.01,WeatherDisplay:10.37,2013-09-16 14:42:00,
2013-09-16 09:47:00,51.2,43.5,30.41,ESE,111,5.8,5.8,75,0.00,CLR,SKC,0.01,WeatherDisplay:10.37,2013-09-16 14:47:00,
2013-09-16 09:52:00,51.3,43.3,30.41,ESE,118,6.0,6.0,74,0.00,CLR,SKC,0.01,WeatherDisplay:10.37,2013-09-16 14:52:00,
2013-09-16 09:57:00,51.0,43.4,30.41,East,96,3.5,3.5,75,0.00,CLR,SKC,0.01,WeatherDisplay:10.37,2013-09-16 14:57:00,
2013-09-16 10:02:00,51.4,43.4,30.41,East,95,4.0,4.0,74,0.00,CLR,SKC,0.01,WeatherDisplay:10.37,2013-09-16 15:02:00,
2013-09-16 10:07:00,51.7,43.7,30.41,East,101,2.3,2.3,74,0.00,CLR,SKC,0.01,WeatherDisplay:10.37,2013-09-16 15:07:00,
2013-09-16 10:12:00,52.1,43.7,30.41,SSE,149,3.0,3.0,73,0.00,CLR,SKC,0.01,WeatherDisplay:10.37,2013-09-16 15:12:00,
2013-09-16 10:17:00,52.4,44.0,30.41,SE,128,3.5,3.5,73,0.00,CLR,SKC,0.01,WeatherDisplay:10.37,2013-09-16 15:17:00,
2013-09-16 10:22:00,52.6,44.2,30.41,SE,142,3.5,3.5,73,0.00,CLR,SKC,0.01,WeatherDisplay:10.37,2013-09-16 15:22:00,
2013-09-16 10:27:00,53.1,44.3,30.41,East,96,2.3,2.3,72,0.00,CLR,SKC,0.01,WeatherDisplay:10.37,2013-09-16 15:27:00,
2013-09-16 10:32:00,53.6,44.0,30.42,SE,134,5.8,5.8,70,0.00,CLR,SKC,0.01,WeatherDisplay:10.37,2013-09-16 15:32:00,
2013-09-16 10:37:00,53.9,44.7,30.41,SSE,151,2.3,2.3,71,0.00,CLR,SKC,0.01,WeatherDisplay:10.37,2013-09-16 15:37:00,
2013-09-16 10:42:00,54.2,44.6,30.41,ESE,110,4.0,4.0,70,0.00,CLR,SKC,0.01,WeatherDisplay:10.37,2013-09-16 15:42:00,
2013-09-16 10:47:00,54.3,45.1,30.41,East,100,2.3,2.3,71,0.00,CLR,SKC,0.01,WeatherDisplay:10.37,2013-09-16 15:47:00,
2013-09-16 10:52:00,54.5,44.9,30.42,SE,126,3.5,3.5,70,0.00,CLR,SKC,0.01,WeatherDisplay:10.37,2013-09-16 15:52:00,
2013-09-16 10:57:00,54.6,45.4,30.41,SE,146,2.3,2.3,71,0.00,CLR,SKC,0.01,WeatherDisplay:10.37,2013-09-16 15:57:00,
2013-09-16 11:02:00,55.1,45.5,30.42,East,89,3.5,3.5,70,0.00,CLR,SKC,0.01,WeatherDisplay:10.37,2013-09-16 16:02:00,
2013-09-16 11:08:00,54.8,44.8,30.42,East,96,2.3,2.3,69,0.00,CLR,SKC,0.01,WeatherDisplay:10.37,2013-09-16 16:08:00,
2013-09-16 11:13:00,55.3,44.9,30.42,South,180,4.6,4.6,68,0.00,CLR,SKC,0.01,WeatherDisplay:10.37,2013-09-16 16:13:00,
2013-09-16 11:18:00,55.5,45.5,30.41,East,79,3.5,3.5,69,0.00,CLR,SKC,0.01,WeatherDisplay:10.37,2013-09-16 16:18:00,
2013-09-16 11:23:00,55.2,45.2,30.41,ESE,102,4.6,4.6,69,0.00,CLR,SKC,0.01,WeatherDisplay:10.37,2013-09-16 16:23:00,
2013-09-16 11:28:00,55.3,45.7,30.41,SSE,155,2.3,2.3,70,0.00,CLR,SKC,0.01,WeatherDisplay:10.37,2013-09-16 16:28:00,
2013-09-16 11:33:00,55.9,45.9,30.41,SE,143,3.5,3.5,69,0.00,CLR,SKC,0.01,WeatherDisplay:10.37,2013-09-16 16:33:00,
2013-09-16 11:38:00,55.9,45.5,30.41,East,96,3.5,3.5,68,0.00,CLR,SKC,0.01,WeatherDisplay:10.37,2013-09-16 16:38:00,
2013-09-16 11:43:00,55.7,44.9,30.41,ESE,114,3.5,3.5,67,0.00,CLR,SKC,0.01,WeatherDisplay:10.37,2013-09-16 16:43:00,
2013-09-16 11:48:00,55.3,45.3,30.41,East,101,6.9,6.9,69,0.00,CLR,SKC,0.01,WeatherDisplay:10.37,2013-09-16 16:48:00,
2013-09-16 11:53:00,55.2,45.2,30.40,ESE,105,4.6,4.6,69,0.00,CLR,SKC,0.01,WeatherDisplay:10.37,2013-09-16 16:53:00,
2013-09-16 11:58:00,55.9,46.3,30.40,East,84,4.6,4.6,70,0.00,CLR,SKC,0.01,WeatherDisplay:10.37,2013-09-16 16:58:00,
2013-09-16 12:03:00,56.3,45.9,30.40,ESE,109,1.2,0.0,68,0.00,CLR,SKC,0.01,WeatherDisplay:10.37,2013-09-16 17:03:00,
2013-09-16 12:08:00,57.0,45.3,30.40,ESE,117,3.5,3.5,65,0.00,CLR,SKC,0.01,WeatherDisplay:10.37,2013-09-16 17:08:00,
2013-09-16 12:13:00,56.9,44.8,30.40,East,101,6.9,6.9,64,0.00,CLR,SKC,0.01,WeatherDisplay:10.37,2013-09-16 17:13:00,
2013-09-16 12:18:00,56.8,44.7,30.40,ESE,109,2.3,2.3,64,0.00,CLR,SKC,0.01,WeatherDisplay:10.37,2013-09-16 17:18:00,
2013-09-16 12:23:00,57.5,45.0,30.40,SE,142,4.6,4.6,63,0.00,CLR,SKC,0.01,WeatherDisplay:10.37,2013-09-16 17:23:00,
2013-09-16 12:28:00,58.2,46.5,30.39,ESE,105,1.2,1.2,65,0.00,CLR,SKC,0.01,WeatherDisplay:10.37,2013-09-16 17:28:00,
2013-09-16 12:33:00,58.7,44.8,30.40,ESE,103,6.9,6.9,60,0.00,CLR,SKC,0.01,WeatherDisplay:10.37,2013-09-16 17:33:00,
2013-09-16 12:38:00,59.0,45.6,30.39,East,95,2.3,2.3,61,0.00,CLR,SKC,0.01,WeatherDisplay:10.37,2013-09-16 17:38:00,
2013-09-16 12:43:00,58.8,45.4,30.39,ESE,112,3.5,3.5,61,0.00,CLR,SKC,0.01,WeatherDisplay:10.37,2013-09-16 17:43:00,
2013-09-16 12:48:00,59.0,44.7,30.39,ESE,109,3.5,3.5,59,0.00,CLR,SKC,0.01,WeatherDisplay:10.37,2013-09-16 17:48:00,
2013-09-16 12:53:00,58.9,44.1,30.39,SE,137,4.6,4.6,58,0.00,CLR,SKC,0.01,WeatherDisplay:10.37,2013-09-16 17:53:00,
2013-09-16 12:58:00,59.0,45.6,30.39,ESE,113,3.5,3.5,61,0.00,CLR,SKC,0.01,WeatherDisplay:10.37,2013-09-16 17:58:00,
2013-09-16 13:03:00,59.1,44.8,30.39,ESE,113,3.5,3.5,59,0.00,CLR,SKC,0.01,WeatherDisplay:10.37,2013-09-16 18:03:00,
2013-09-16 13:08:00,59.4,44.6,30.39,ESE,116,3.5,3.5,58,0.00,CLR,SKC,0.01,WeatherDisplay:10.37,2013-09-16 18:08:00,
2013-09-16 13:13:00,59.7,45.8,30.39,SE,138,3.0,3.0,60,0.00,CLR,SKC,0.01,WeatherDisplay:10.37,2013-09-16 18:13:00,
2013-09-16 13:18:00,60.1,45.3,30.38,East,88,3.5,3.5,58,0.00,CLR,SKC,0.01,WeatherDisplay:10.37,2013-09-16 18:18:00,
2013-09-16 13:23:00,59.9,45.5,30.38,East,101,2.3,0.0,59,0.00,CLR,SKC,0.01,WeatherDisplay:10.37,2013-09-16 18:23:00,
2013-09-16 13:28:00,60.2,47.1,30.38,ESE,115,1.2,0.0,62,0.00,CLR,SKC,0.01,WeatherDisplay:10.37,2013-09-16 18:28:00,
2013-09-16 13:33:00,61.0,46.1,30.38,SE,126,3.5,3.5,58,0.00,CLR,SKC,0.01,WeatherDisplay:10.37,2013-09-16 18:33:00,
2013-09-16 13:38:00,61.9,47.4,30.38,South,180,2.3,2.3,59,0.00,CLR,SKC,0.01,WeatherDisplay:10.37,2013-09-16 18:38:00,
2013-09-16 13:43:00,62.6,46.2,30.38,East,90,3.5,3.5,55,0.00,CLR,SKC,0.01,WeatherDisplay:10.37,2013-09-16 18:43:00,
2013-09-16 13:48:00,62.1,46.2,30.38,ESE,117,3.5,3.5,56,0.00,CLR,SKC,0.01,WeatherDisplay:10.37,2013-09-16 18:48:00,
2013-09-16 13:53:00,62.1,45.2,30.38,East,91,3.5,3.5,54,0.00,CLR,SKC,0.01,WeatherDisplay:10.37,2013-09-16 18:53:00,
2013-09-16 13:58:00,62.4,45.5,30.37,East,82,3.5,3.5,54,0.00,CLR,SKC,0.01,WeatherDisplay:10.37,2013-09-16 18:58:00,
2013-09-16 14:03:00,62.1,45.7,30.37,SSE,157,3.5,3.5,55,0.00,CLR,SKC,0.01,WeatherDisplay:10.37,2013-09-16 19:03:00,
2013-09-16 14:08:00,62.6,46.2,30.36,ENE,62,3.5,3.5,55,0.00,CLR,SKC,0.01,WeatherDisplay:10.37,2013-09-16 19:08:00,
2013-09-16 14:13:00,62.2,45.3,30.37,East,100,1.2,1.2,54,0.00,CLR,SKC,0.01,WeatherDisplay:10.37,2013-09-16 19:13:00,
2013-09-16 14:18:00,62.5,46.1,30.36,SSW,199,3.5,3.5,55,0.00,CLR,SKC,0.01,WeatherDisplay:10.37,2013-09-16 19:18:00,
2013-09-16 14:24:00,62.9,46.0,30.36,East,99,3.5,3.5,54,0.00,CLR,SKC,0.01,WeatherDisplay:10.37,2013-09-16 19:24:00,
2013-09-16 14:29:00,62.8,45.9,30.36,SE,132,3.5,3.5,54,0.00,CLR,SKC,0.01,WeatherDisplay:10.37,2013-09-16 19:29:00,
2013-09-16 14:34:00,62.5,46.1,30.36,SE,134,2.3,2.3,55,0.00,CLR,SKC,0.01,WeatherDisplay:10.37,2013-09-16 19:34:00,
2013-09-16 14:39:00,62.7,45.8,30.35,East,98,2.3,2.3,54,0.00,CLR,SKC,0.01,WeatherDisplay:10.37,2013-09-16 19:39:00,
2013-09-16 14:44:00,63.3,45.4,30.35,ESE,114,5.8,5.8,52,0.00,CLR,SKC,0.01,WeatherDisplay:10.37,2013-09-16 19:44:00,
2013-09-16 14:49:00,63.5,45.6,30.35,South,186,3.5,3.5,52,0.00,CLR,SKC,0.01,WeatherDisplay:10.37,2013-09-16 19:49:00,
2013-09-16 14:54:00,64.5,46.0,30.34,SE,134,0.0,0.0,51,0.00,CLR,SKC,0.01,WeatherDisplay:10.37,2013-09-16 19:54:00,
2013-09-16 14:59:00,64.6,45.5,30.34,ESE,113,6.9,6.9,50,0.00,CLR,SKC,0.01,WeatherDisplay:10.37,2013-09-16 19:59:00,
2013-09-16 15:04:00,64.2,45.2,30.34,ESE,113,4.6,4.6,50,0.00,CLR,SKC,0.01,WeatherDisplay:10.37,2013-09-16 20:04:00,
2013-09-16 15:09:00,64.3,44.7,30.34,SSE,161,4.6,4.6,49,0.00,CLR,SKC,0.01,WeatherDisplay:10.37,2013-09-16 20:09:00,
2013-09-16 15:14:00,64.3,45.8,30.34,SE,143,8.1,8.1,51,0.00,CLR,SKC,0.01,WeatherDisplay:10.37,2013-09-16 20:14:00,
2013-09-16 15:19:00,64.1,45.6,30.33,SE,140,3.5,3.5,51,0.00,CLR,SKC,0.01,WeatherDisplay:10.37,2013-09-16 20:19:00,
2013-09-16 15:24:00,64.3,45.8,30.33,East,96,1.2,1.2,51,0.00,CLR,SKC,0.01,WeatherDisplay:10.37,2013-09-16 20:24:00,
2013-09-16 15:29:00,64.4,44.8,30.33,ESE,112,5.8,5.8,49,0.00,CLR,SKC,0.01,WeatherDisplay:10.37,2013-09-16 20:29:00,
2013-09-16 15:34:00,64.3,44.7,30.33,ESE,107,3.5,3.5,49,0.00,CLR,SKC,0.01,WeatherDisplay:10.37,2013-09-16 20:34:00,
2013-09-16 15:39:00,64.4,45.3,30.33,East,98,4.6,4.6,50,0.00,CLR,SKC,0.01,WeatherDisplay:10.37,2013-09-16 20:39:00,
2013-09-16 15:44:00,64.6,45.0,30.32,East,95,0.0,0.0,49,0.00,CLR,SKC,0.01,WeatherDisplay:10.37,2013-09-16 20:44:00,
2013-09-16 15:49:00,65.2,45.5,30.32,East,80,4.6,4.6,49,0.00,CLR,SKC,0.01,WeatherDisplay:10.37,2013-09-16 20:49:00,
2013-09-16 15:54:00,65.1,44.9,30.32,SE,130,5.8,5.8,48,0.00,CLR,SKC,0.01,WeatherDisplay:10.37,2013-09-16 20:54:00,
2013-09-16 15:59:00,65.2,45.0,30.32,SE,128,1.2,0.0,48,0.00,CLR,SKC,0.01,WeatherDisplay:10.37,2013-09-16 20:59:00,
2013-09-16 16:04:00,65.4,44.6,30.31,ESE,105,5.8,5.8,47,0.00,CLR,SKC,0.01,WeatherDisplay:10.37,2013-09-16 21:04:00,
2013-09-16 16:09:00,65.2,45.0,30.31,SE,138,3.5,3.5,48,0.00,CLR,SKC,0.01,WeatherDisplay:10.37,2013-09-16 21:09:00,
2013-09-16 16:14:00,65.9,45.6,30.31,SSE,164,0.0,0.0,48,0.00,CLR,SKC,0.01,WeatherDisplay:10.37,2013-09-16 21:14:00,
2013-09-16 16:19:00,65.8,45.6,30.30,ESE,121,3.5,3.5,48,0.00,CLR,SKC,0.01,WeatherDisplay:10.37,2013-09-16 21:19:00,
2013-09-16 16:24:00,65.3,44.5,30.30,East,90,3.5,3.5,47,0.00,CLR,SKC,0.01,WeatherDisplay:10.37,2013-09-16 21:24:00,
2013-09-16 16:29:00,65.1,44.4,30.30,ESE,107,3.5,3.5,47,0.00,CLR,SKC,0.01,WeatherDisplay:10.37,2013-09-16 21:29:00,
2013-09-16 16:34:00,65.2,46.1,30.30,SSE,161,0.0,0.0,50,0.00,CLR,SKC,0.01,WeatherDisplay:10.37,2013-09-16 21:34:00,
2013-09-16 16:39:00,65.2,45.5,30.30,East,94,4.6,4.6,49,0.00,CLR,SKC,0.01,WeatherDisplay:10.37,2013-09-16 21:39:00,
2013-09-16 16:44:00,65.6,45.9,30.30,East,91,0.0,0.0,49,0.00,CLR,SKC,0.01,WeatherDisplay:10.37,2013-09-16 21:44:00,
2013-09-16 16:49:00,66.3,46.0,30.30,ESE,116,3.5,3.5,48,0.00,CLR,SKC,0.01,WeatherDisplay:10.37,2013-09-16 21:49:00,
2013-09-16 16:54:00,65.9,44.5,30.29,ESE,121,3.5,3.5,46,0.00,CLR,SKC,0.01,WeatherDisplay:10.37,2013-09-16 21:54:00,
2013-09-16 16:59:00,66.0,45.7,30.29,SE,128,2.3,2.3,48,0.00,CLR,SKC,0.01,WeatherDisplay:10.37,2013-09-16 21:59:00,
2013-09-16 17:04:00,66.1,45.3,30.29,SE,127,2.3,2.3,47,0.00,CLR,SKC,0.01,WeatherDisplay:10.37,2013-09-16 22:04:00,
2013-09-16 17:09:00,66.0,46.3,30.29,SE,128,1.2,0.0,49,0.00,CLR,SKC,0.01,WeatherDisplay:10.37,2013-09-16 22:09:00,
2013-09-16 17:14:00,66.0,45.7,30.29,East,101,4.6,4.6,48,0.00,CLR,SKC,0.01,WeatherDisplay:10.37,2013-09-16 22:14:00,
2013-09-16 17:19:00,65.9,45.6,30.28,East,98,3.5,3.5,48,0.00,CLR,SKC,0.01,WeatherDisplay:10.37,2013-09-16 22:19:00,
2013-09-16 17:24:00,65.8,45.6,30.28,SSE,167,0.0,0.8,48,0.00,CLR,SKC,0.01,WeatherDisplay:10.37,2013-09-16 22:24:00,
2013-09-16 17:29:00,65.7,45.5,30.28,ESE,121,0.0,0.0,48,0.00,CLR,SKC,0.01,WeatherDisplay:10.37,2013-09-16 22:29:00,
2013-09-16 17:34:00,65.6,44.8,30.28,ESE,105,3.5,3.5,47,0.00,CLR,SKC,0.01,WeatherDisplay:10.37,2013-09-16 22:34:00,
2013-09-16 17:39:00,65.3,45.1,30.28,ESE,107,2.3,0.0,48,0.00,CLR,SKC,0.01,WeatherDisplay:10.37,2013-09-16 22:39:00,
2013-09-16 17:44:00,65.4,45.2,30.28,ESE,109,1.2,0.0,48,0.00,CLR,SKC,0.01,WeatherDisplay:10.37,2013-09-16 22:44:00,
2013-09-16 17:49:00,65.6,45.4,30.28,ESE,122,3.5,3.5,48,0.00,CLR,SKC,0.01,WeatherDisplay:10.37,2013-09-16 22:49:00,
2013-09-16 17:54:00,65.5,45.3,30.28,ESE,113,1.2,0.0,48,0.00,CLR,SKC,0.01,WeatherDisplay:10.37,2013-09-16 22:54:00,
2013-09-16 17:59:00,65.4,45.2,30.28,SE,134,2.3,2.3,48,0.00,CLR,SKC,0.01,WeatherDisplay:10.37,2013-09-16 22:59:00,
2013-09-16 18:04:00,65.3,45.6,30.28,SSE,154,3.5,3.5,49,0.00,CLR,SKC,0.01,WeatherDisplay:10.37,2013-09-16 23:04:00,
2013-09-16 18:09:00,64.9,45.3,30.28,ESE,111,2.3,2.3,49,0.00,CLR,SKC,0.01,WeatherDisplay:10.37,2013-09-16 23:09:00,
2013-09-16 18:14:00,64.6,45.5,30.28,SE,126,3.5,3.5,50,0.00,CLR,SKC,0.01,WeatherDisplay:10.37,2013-09-16 23:14:00,
2013-09-16 18:20:00,64.7,45.6,30.28,SE,129,0.0,0.0,50,0.00,CLR,SKC,0.01,WeatherDisplay:10.37,2013-09-16 23:20:00,
2013-09-16 18:25:00,64.7,45.6,30.28,SSE,161,2.3,2.3,50,0.00,CLR,SKC,0.01,WeatherDisplay:10.37,2013-09-16 23:25:00,
2013-09-16 18:30:00,64.6,45.5,30.28,SE,138,0.0,0.0,50,0.00,CLR,SKC,0.01,WeatherDisplay:10.37,2013-09-16 23:30:00,
2013-09-16 18:35:00,64.4,45.3,30.28,SSE,162,4.6,4.6,50,0.00,CLR,SKC,0.01,WeatherDisplay:10.37,2013-09-16 23:35:00,
2013-09-16 18:40:00,64.2,45.7,30.27,SSE,162,0.0,0.0,51,0.00,CLR,SKC,0.01,WeatherDisplay:10.37,2013-09-16 23:40:00,
2013-09-16 18:45:00,63.9,45.9,30.27,SE,124,3.5,3.5,52,0.00,CLR,SKC,0.01,WeatherDisplay:10.37,2013-09-16 23:45:00,
2013-09-16 18:50:00,63.6,45.6,30.27,SSE,150,1.2,1.2,52,0.00,CLR,SKC,0.01,WeatherDisplay:10.37,2013-09-16 23:50:00,
2013-09-16 18:55:00,63.3,46.4,30.27,ESE,113,3.5,3.5,54,0.00,CLR,SKC,0.01,WeatherDisplay:10.37,2013-09-16 23:55:00,
2013-09-16 19:00:00,63.1,46.2,30.26,ESE,113,1.2,1.2,54,0.00,CLR,SKC,0.01,WeatherDisplay:10.37,2013-09-17 00:00:00,
2013-09-16 19:05:00,62.7,46.3,30.26,ESE,115,0.0,0.0,55,0.00,CLR,SKC,0.01,WeatherDisplay:10.37,2013-09-17 00:05:00,
2013-09-16 19:10:00,62.3,45.9,30.26,SE,126,3.5,3.5,55,0.00,CLR,SKC,0.01,WeatherDisplay:10.37,2013-09-17 00:10:00,
2013-09-16 19:15:00,62.0,45.6,30.26,ESE,109,3.5,3.5,55,0.00,CLR,SKC,0.01,WeatherDisplay:10.37,2013-09-17 00:15:00,
2013-09-16 19:20:00,61.6,45.3,30.26,ESE,112,3.5,3.5,55,0.00,CLR,SKC,0.01,WeatherDisplay:10.37,2013-09-17 00:20:00,
2013-09-16 19:25:00,61.1,45.3,30.26,East,98,2.3,2.3,56,0.00,CLR,SKC,0.01,WeatherDisplay:10.37,2013-09-17 00:25:00,
2013-09-16 19:30:00,60.8,45.5,30.26,SE,129,3.5,3.5,57,0.00,CLR,SKC,0.01,WeatherDisplay:10.37,2013-09-17 00:30:00,
2013-09-16 19:35:00,60.4,45.5,30.26,SE,143,0.0,0.0,58,0.00,CLR,SKC,0.01,WeatherDisplay:10.37,2013-09-17 00:35:00,
2013-09-16 19:40:00,60.0,45.6,30.26,SE,137,0.0,0.0,59,0.00,CLR,SKC,0.01,WeatherDisplay:10.37,2013-09-17 00:40:00,
2013-09-16 19:45:00,59.6,45.7,30.26,SE,138,0.0,0.0,60,0.00,CLR,SKC,0.01,WeatherDisplay:10.37,2013-09-17 00:45:00,
2013-09-16 19:50:00,59.0,46.0,30.26,SE,138,0.0,0.0,62,0.00,CLR,SKC,0.01,WeatherDisplay:10.37,2013-09-17 00:50:00,
2013-09-16 19:55:00,59.0,46.0,30.26,SE,138,0.0,0.0,62,0.00,CLR,SKC,0.01,WeatherDisplay:10.37,2013-09-17 00:55:00,
2013-09-16 20:00:00,58.6,45.6,30.26,SE,124,3.5,3.5,62,0.00,CLR,SKC,0.01,WeatherDisplay:10.37,2013-09-17 01:00:00,
2013-09-16 20:05:00,58.5,45.5,30.26,SE,126,2.3,2.3,62,0.00,CLR,SKC,0.01,WeatherDisplay:10.37,2013-09-17 01:05:00,
2013-09-16 20:10:00,58.2,45.2,30.26,SE,126,0.0,0.0,62,0.00,CLR,SKC,0.01,WeatherDisplay:10.37,2013-09-17 01:10:00,
2013-09-16 20:15:00,58.0,45.0,30.26,ESE,123,0.0,0.0,62,0.00,CLR,SKC,0.01,WeatherDisplay:10.37,2013-09-17 01:15:00,
2013-09-16 20:20:00,57.8,44.9,30.26,East,92,0.0,0.0,62,0.00,CLR,SKC,0.01,WeatherDisplay:10.37,2013-09-17 01:20:00,
2013-09-16 20:25:00,57.7,45.2,30.26,ESE,109,3.5,3.5,63,0.00,CLR,SKC,0.01,WeatherDisplay:10.37,2013-09-17 01:25:00,
2013-09-16 20:30:00,57.5,45.0,30.27,ESE,117,3.5,3.5,63,0.00,CLR,SKC,0.01,WeatherDisplay:10.37,2013-09-17 01:30:00,
2013-09-16 20:35:00,57.3,44.8,30.26,SE,146,0.0,0.0,63,0.00,CLR,SKC,0.01,WeatherDisplay:10.37,2013-09-17 01:35:00,
2013-09-16 20:40:00,57.1,44.6,30.26,ESE,119,3.5,3.5,63,0.00,CLR,SKC,0.01,WeatherDisplay:10.37,2013-09-17 01:40:00,
2013-09-16 20:45:00,56.9,44.8,30.27,ESE,123,1.2,0.0,64,0.00,CLR,SKC,0.01,WeatherDisplay:10.37,2013-09-17 01:45:00,
2013-09-16 20:50:00,56.6,44.6,30.26,ESE,109,3.5,3.5,64,0.00,CLR,SKC,0.01,WeatherDisplay:10.37,2013-09-17 01:50:00,
2013-09-16 20:55:00,56.5,44.0,30.27,East,95,3.5,3.5,63,0.00,CLR,SKC,0.01,WeatherDisplay:10.37,2013-09-17 01:55:00,
2013-09-16 21:00:00,56.4,43.5,30.26,East,101,10.4,10.4,62,0.00,CLR,SKC,0.01,WeatherDisplay:10.37,2013-09-17 02:00:00,
2013-09-16 21:05:00,56.3,43.9,30.26,ESE,110,5.8,5.8,63,0.00,CLR,SKC,0.01,WeatherDisplay:10.37,2013-09-17 02:05:00,
2013-09-16 21:10:00,56.2,43.3,30.26,ESE,121,4.6,4.6,62,0.00,CLR,SKC,0.01,WeatherDisplay:10.37,2013-09-17 02:10:00,
2013-09-16 21:15:00,56.2,43.3,30.26,SE,138,10.4,10.4,62,0.00,CLR,SKC,0.01,WeatherDisplay:10.37,2013-09-17 02:15:00,
2013-09-16 21:20:00,56.2,43.3,30.26,SE,141,3.5,3.5,62,0.00,CLR,SKC,0.01,WeatherDisplay:10.37,2013-09-17 02:20:00,
2013-09-16 21:25:00,56.1,43.7,30.26,East,97,4.6,4.6,63,0.00,CLR,SKC,0.01,WeatherDisplay:10.37,2013-09-17 02:25:00,
2013-09-16 21:30:00,56.0,43.6,30.26,ESE,122,4.6,4.6,63,0.00,CLR,SKC,0.01,WeatherDisplay:10.37,2013-09-17 02:30:00,
2013-09-16 21:35:00,55.9,43.5,30.26,ESE,103,8.1,0.0,63,0.00,CLR,SKC,0.01,WeatherDisplay:10.37,2013-09-17 02:35:00,
2013-09-16 21:40:00,55.7,43.3,30.26,ESE,119,4.6,4.6,63,0.00,CLR,SKC,0.01,WeatherDisplay:10.37,2013-09-17 02:40:00,
2013-09-16 21:45:00,55.6,43.2,30.26,ESE,110,10.4,10.4,63,0.00,CLR,SKC,0.01,WeatherDisplay:10.37,2013-09-17 02:45:00,
2013-09-16 21:50:00,55.5,43.1,30.26,SE,136,7.0,7.0,63,0.00,CLR,SKC,0.01,WeatherDisplay:10.37,2013-09-17 02:50:00,
2013-09-16 21:55:00,55.4,43.0,30.26,SE,125,3.5,3.5,63,0.00,CLR,SKC,0.01,WeatherDisplay:10.37,2013-09-17 02:55:00,
2013-09-16 22:01:00,55.2,43.2,30.26,SE,129,4.6,4.6,64,0.00,CLR,SKC,0.01,WeatherDisplay:10.37,2013-09-17 03:01:00,
2013-09-16 22:06:00,55.1,43.1,30.26,SE,138,5.8,5.8,64,0.00,CLR,SKC,0.01,WeatherDisplay:10.37,2013-09-17 03:06:00,
2013-09-16 22:11:00,54.9,42.9,30.26,SSE,165,9.2,9.2,64,0.00,CLR,SKC,0.01,WeatherDisplay:10.37,2013-09-17 03:11:00,
2013-09-16 22:16:00,54.7,42.8,30.26,East,96,5.8,5.8,64,0.00,CLR,SKC,0.01,WeatherDisplay:10.37,2013-09-17 03:16:00,
2013-09-16 22:21:00,54.5,43.0,30.26,ESE,115,0.0,0.0,65,0.00,CLR,SKC,0.01,WeatherDisplay:10.37,2013-09-17 03:21:00,
2013-09-16 22:26:00,54.3,42.8,30.26,ESE,118,6.9,6.9,65,0.00,CLR,SKC,0.01,WeatherDisplay:10.37,2013-09-17 03:26:00,
2013-09-16 22:31:00,54.1,43.0,30.26,East,101,2.3,2.3,66,0.00,CLR,SKC,0.01,WeatherDisplay:10.37,2013-09-17 03:31:00,
2013-09-16 22:36:00,53.9,43.2,30.26,ESE,119,4.6,4.6,67,0.00,CLR,SKC,0.01,WeatherDisplay:10.37,2013-09-17 03:36:00,
2013-09-16 22:41:00,53.9,43.2,30.26,SE,126,1.2,1.2,67,0.00,CLR,SKC,0.01,WeatherDisplay:10.37,2013-09-17 03:41:00,
2013-09-16 22:46:00,53.8,42.7,30.26,ESE,120,0.0,0.0,66,0.00,CLR,SKC,0.01,WeatherDisplay:10.37,2013-09-17 03:46:00,
2013-09-16 22:51:00,53.7,43.0,30.26,SE,128,1.2,1.2,67,0.00,CLR,SKC,0.01,WeatherDisplay:10.37,2013-09-17 03:51:00,
2013-09-16 22:56:00,53.6,42.9,30.26,ESE,109,4.6,4.6,67,0.00,CLR,SKC,0.01,WeatherDisplay:10.37,2013-09-17 03:56:00,
2013-09-16 23:01:00,53.6,42.9,30.26,SE,132,6.9,6.9,67,0.00,CLR,SKC,0.01,WeatherDisplay:10.37,2013-09-17 04:01:00,
2013-09-16 23:02:00,53.5,42.8,30.26,South,172,5.8,5.8,67,0.00,CLR,SKC,0.01,WeatherDisplay:10.37,2013-09-17 04:02:00,
2013-09-16 23:07:00,53.4,43.1,30.26,ESE,105,4.6,4.6,68,0.00,CLR,SKC,0.01,WeatherDisplay:10.37,2013-09-17 04:07:00,
2013-09-16 23:12:00,53.2,42.9,30.26,ESE,107,3.5,3.5,68,0.00,CLR,SKC,0.01,WeatherDisplay:10.37,2013-09-17 04:12:00,
2013-09-16 23:17:00,53.1,43.2,30.26,SE,142,4.6,4.6,69,0.00,CLR,SKC,0.01,WeatherDisplay:10.37,2013-09-17 04:17:00,
2013-09-16 23:22:00,53.0,43.1,30.26,SSE,148,6.0,6.0,69,0.00,CLR,SKC,0.01,WeatherDisplay:10.37,2013-09-17 04:22:00,
2013-09-16 23:27:00,52.8,42.9,30.26,ESE,114,3.5,3.5,69,0.00,CLR,SKC,0.01,WeatherDisplay:10.37,2013-09-17 04:27:00,
2013-09-16 23:32:00,52.8,43.3,30.26,ESE,113,3.5,3.5,70,0.00,CLR,SKC,0.01,WeatherDisplay:10.37,2013-09-17 04:32:00,
2013-09-16 23:37:00,52.7,43.2,30.26,ESE,117,5.8,5.8,70,0.00,CLR,SKC,0.01,WeatherDisplay:10.37,2013-09-17 04:37:00,
2013-09-16 23:42:00,52.6,43.1,30.26,SSE,149,4.6,4.6,70,0.00,CLR,SKC,0.01,WeatherDisplay:10.37,2013-09-17 04:42:00,
2013-09-16 23:47:00,52.4,42.9,30.26,South,176,5.8,5.8,70,0.00,CLR,SKC,0.01,WeatherDisplay:10.37,2013-09-17 04:47:00,
2013-09-16 23:52:00,52.2,43.1,30.26,SSE,148,3.5,3.5,71,0.00,CLR,SKC,0.01,WeatherDisplay:10.37,2013-09-17 04:52:00,
2013-09-16 23:57:00,52.1,43.0,30.26,SE,145,4.6,4.6,71,0.00,CLR,SKC,0.01,WeatherDisplay:10.37,2013-09-17 04:57:00,